createdAt,value
2023-02-23T00:01:37.538Z,100571.19
2023-02-23T00:04:04.598Z,100580.84
2023-02-23T00:06:33.470Z,100573.66
2023-02-23T00:09:01.349Z,100578.41
2023-02-23T00:11:28.633Z,100580.41
2023-02-23T00:13:56.831Z,100575.63
2023-02-23T00:16:25.482Z,100572.38
2023-02-23T00:18:55.803Z,100575.63
2023-02-23T00:21:30.093Z,100572.38
2023-02-23T00:24:01.351Z,100569.22
2023-02-23T00:26:35.300Z,100567.59
2023-02-23T00:29:05.224Z,100571.59
2023-02-23T00:31:32.390Z,100566.00
2023-02-23T00:34:01.456Z,100560.78
2023-02-23T00:36:30.487Z,100561.13
2023-02-23T00:39:00.684Z,100563.13
2023-02-23T00:41:31.571Z,100561.94
2023-02-23T00:44:00.034Z,100558.69
2023-02-23T00:46:29.776Z,100559.13
2023-02-23T00:48:58.762Z,100565.91
2023-02-23T00:51:31.051Z,100560.31
2023-02-23T00:53:59.650Z,100559.13
2023-02-23T00:56:26.477Z,100561.56
2023-02-23T00:58:53.128Z,100562.81
2023-02-23T01:01:20.039Z,100562.38
2023-02-23T01:03:46.755Z,100564.72
2023-02-23T01:06:15.254Z,100561.50
2023-02-23T01:08:44.461Z,100557.44
2023-02-23T01:11:17.123Z,100559.44
2023-02-23T01:13:45.181Z,100549.06
2023-02-23T01:16:15.384Z,100561.81
2023-02-23T01:18:44.462Z,100561.81
2023-02-23T01:21:23.890Z,100562.19
2023-02-23T01:23:51.925Z,100559.00
2023-02-23T01:26:24.477Z,100554.94
2023-02-23T01:28:56.744Z,100557.75
2023-02-23T01:31:24.790Z,100566.59
2023-02-23T01:33:59.461Z,100562.53
2023-02-23T01:36:27.183Z,100567.78
2023-02-23T01:38:57.411Z,100560.19
2023-02-23T01:41:24.985Z,100559.38
2023-02-23T01:44:28.019Z,100562.91
2023-02-23T01:46:54.403Z,100559.81
2023-02-23T01:49:27.753Z,100558.59
2023-02-23T01:52:20.794Z,100564.09
2023-02-23T01:54:51.921Z,100566.13
2023-02-23T01:57:21.901Z,100561.72
2023-02-23T01:59:51.095Z,100559.75
2023-02-23T02:02:20.982Z,100556.59
2023-02-23T02:04:52.432Z,100552.59
2023-02-23T02:07:23.385Z,100561.00
2023-02-23T02:10:11.770Z,100553.78
2023-02-23T02:12:40.574Z,100550.63
2023-02-23T02:15:16.920Z,100548.25
2023-02-23T02:18:09.590Z,100540.16
2023-02-23T02:20:54.688Z,100549.34
2023-02-23T02:23:53.357Z,100544.06
2023-02-23T02:26:32.042Z,100550.91
2023-02-23T02:29:28.894Z,100550.47
2023-02-23T02:32:20.194Z,100552.41
2023-02-23T02:35:21.040Z,100548.81
2023-02-23T02:38:04.299Z,100552.41
2023-02-23T02:40:39.625Z,100548.44
2023-02-23T02:43:15.079Z,100546.00
2023-02-23T02:45:50.313Z,100538.78
2023-02-23T02:48:39.012Z,100542.75
2023-02-23T02:51:26.037Z,100541.94
2023-02-23T02:54:06.651Z,100538.78
2023-02-23T02:56:40.677Z,100539.16
2023-02-23T02:59:30.521Z,100537.53
2023-02-23T03:02:16.307Z,100532.28
2023-02-23T03:05:02.421Z,100529.88
2023-02-23T03:08:04.704Z,100527.84
2023-02-23T03:11:05.483Z,100529.81
2023-02-23T03:14:23.594Z,100533.44
2023-02-23T03:17:13.516Z,100529.88
2023-02-23T03:20:12.180Z,100530.25
2023-02-23T03:23:06.606Z,100540.19
2023-02-23T03:26:05.325Z,100530.91
2023-02-23T03:29:04.727Z,100538.50
2023-02-23T03:32:07.217Z,100537.25
2023-02-23T03:35:01.374Z,100532.91
2023-02-23T03:37:53.862Z,100533.69
2023-02-23T03:40:46.944Z,100538.50
2023-02-23T03:43:41.811Z,100536.97
2023-02-23T03:46:30.064Z,100534.97
2023-02-23T03:49:18.743Z,100539.38
2023-02-23T03:52:08.798Z,100527.75
2023-02-23T03:54:59.924Z,100539.75
2023-02-23T03:57:48.504Z,100545.78
2023-02-23T04:00:40.810Z,100542.53
2023-02-23T04:03:28.814Z,100536.56
2023-02-23T04:06:16.127Z,100536.56
2023-02-23T04:09:01.901Z,100534.16
2023-02-23T04:11:59.140Z,100529.28
2023-02-23T04:14:32.795Z,100535.28
2023-02-23T04:16:59.894Z,100538.88
2023-02-23T04:19:28.906Z,100544.03
2023-02-23T04:21:55.590Z,100542.84
2023-02-23T04:24:23.086Z,100545.66
2023-02-23T04:26:49.697Z,100542.84
2023-02-23T04:29:16.338Z,100550.06
2023-02-23T04:31:42.822Z,100545.66
2023-02-23T04:34:09.437Z,100551.25
2023-02-23T04:36:36.304Z,100546.84
2023-02-23T04:39:03.407Z,100549.97
2023-02-23T04:41:29.986Z,100555.56
2023-02-23T04:43:56.613Z,100553.94
2023-02-23T04:46:23.138Z,100549.53
2023-02-23T04:48:49.792Z,100558.75
2023-02-23T04:51:16.478Z,100548.38
2023-02-23T04:53:44.105Z,100551.97
2023-02-23T04:56:12.052Z,100553.16
2023-02-23T04:58:38.747Z,100549.16
2023-02-23T05:01:06.891Z,100553.16
2023-02-23T05:03:33.557Z,100559.16
2023-02-23T05:06:00.419Z,100551.97
2023-02-23T05:08:27.149Z,100561.97
2023-02-23T05:10:53.752Z,100553.56
2023-02-23T05:13:20.650Z,100551.63
2023-02-23T05:15:47.054Z,100554.41
2023-02-23T05:18:13.520Z,100553.56
2023-02-23T05:20:44.966Z,100559.53
2023-02-23T05:23:11.626Z,100560.34
2023-02-23T05:25:39.501Z,100564.34
2023-02-23T05:28:05.913Z,100565.50
2023-02-23T05:30:33.213Z,100568.66
2023-02-23T05:33:00.053Z,100565.44
2023-02-23T05:35:26.805Z,100565.81
2023-02-23T05:37:53.158Z,100561.41
2023-02-23T05:40:19.864Z,100559.75
2023-02-23T05:42:46.222Z,100562.56
2023-02-23T05:45:12.714Z,100564.53
2023-02-23T05:47:39.328Z,100568.53
2023-02-23T05:50:10.097Z,100567.25
2023-02-23T05:52:41.470Z,100569.25
2023-02-23T05:55:11.421Z,100565.28
2023-02-23T05:57:39.300Z,100568.91
2023-02-23T06:00:09.837Z,100570.88
2023-02-23T06:02:36.738Z,100566.09
2023-02-23T06:05:03.469Z,100565.28
2023-02-23T06:07:29.932Z,100569.25
2023-02-23T06:09:56.510Z,100570.44
2023-02-23T06:12:23.775Z,100569.19
2023-02-23T06:14:50.804Z,100572.34
2023-02-23T06:17:17.259Z,100572.34
2023-02-23T06:19:44.545Z,100584.31
2023-02-23T06:22:11.290Z,100583.50
2023-02-23T06:24:37.636Z,100585.16
2023-02-23T06:27:05.198Z,100575.13
2023-02-23T06:29:31.551Z,100587.13
2023-02-23T06:32:01.121Z,100588.28
2023-02-23T06:34:27.781Z,100597.50
2023-02-23T06:36:54.154Z,100599.47
2023-02-23T06:39:20.735Z,100598.66
2023-02-23T06:41:47.098Z,100600.66
2023-02-23T06:44:13.835Z,100605.44
2023-02-23T06:46:40.709Z,100609.41
2023-02-23T06:49:07.353Z,100606.63
2023-02-23T06:51:34.007Z,100605.81
2023-02-23T06:54:00.371Z,100612.56
2023-02-23T06:56:26.773Z,100620.13
2023-02-23T06:58:53.373Z,100618.16
2023-02-23T07:01:21.035Z,100624.13
2023-02-23T07:03:47.939Z,100618.16
2023-02-23T07:06:14.559Z,100622.94
2023-02-23T07:08:41.044Z,100619.34
2023-02-23T07:11:10.010Z,100624.50
2023-02-23T07:13:36.673Z,100623.69
2023-02-23T07:16:03.663Z,100632.06
2023-02-23T07:18:30.078Z,100635.59
2023-02-23T07:20:56.443Z,100633.94
2023-02-23T07:23:22.818Z,100630.69
2023-02-23T07:25:56.503Z,100641.78
2023-02-23T07:28:23.010Z,100642.59
2023-02-23T07:30:52.460Z,100642.59
2023-02-23T07:33:18.855Z,100643.75
2023-02-23T07:35:45.257Z,100650.53
2023-02-23T07:38:13.386Z,100641.34
2023-02-23T07:40:40.060Z,100646.53
2023-02-23T07:43:07.188Z,100650.53
2023-02-23T07:45:33.852Z,100652.13
2023-02-23T07:48:00.323Z,100655.78
2023-02-23T07:50:26.927Z,100656.19
2023-02-23T07:52:53.667Z,100657.81
2023-02-23T07:55:20.993Z,100663.41
2023-02-23T07:57:47.642Z,100659.44
2023-02-23T08:00:14.950Z,100671.44
2023-02-23T08:02:41.565Z,100663.06
2023-02-23T08:05:08.161Z,100667.47
2023-02-23T08:07:34.667Z,100678.66
2023-02-23T08:10:01.278Z,100671.91
2023-02-23T08:12:28.000Z,100679.94
2023-02-23T08:14:54.623Z,100679.94
2023-02-23T08:17:20.986Z,100683.53
2023-02-23T08:19:47.377Z,100679.59
2023-02-23T08:22:13.716Z,100677.94
2023-02-23T08:24:40.097Z,100685.50
2023-02-23T08:27:06.481Z,100684.38
2023-02-23T08:29:34.774Z,100697.06
2023-02-23T08:32:04.652Z,100695.09
2023-02-23T08:34:31.743Z,100697.50
2023-02-23T08:36:58.174Z,100701.13
2023-02-23T08:39:24.701Z,100703.94
2023-02-23T08:41:51.406Z,100699.97
2023-02-23T08:44:17.956Z,100705.97
2023-02-23T08:46:45.365Z,100705.59
2023-02-23T08:49:12.198Z,100706.44
2023-02-23T08:51:38.947Z,100706.06
2023-02-23T08:54:09.915Z,100703.72
2023-02-23T08:56:36.287Z,100711.38
2023-02-23T08:59:03.889Z,100712.19
2023-02-23T09:01:30.446Z,100714.28
2023-02-23T09:03:57.078Z,100715.88
2023-02-23T09:06:28.115Z,100719.50
2023-02-23T09:08:55.839Z,100711.53
2023-02-23T09:11:23.717Z,100727.97
2023-02-23T09:13:50.394Z,100725.16
2023-02-23T09:16:17.455Z,100724.00
2023-02-23T09:18:44.388Z,100728.78
2023-02-23T09:21:18.876Z,100732.75
2023-02-23T09:23:48.339Z,100729.59
2023-02-23T09:26:15.101Z,100732.00
2023-02-23T09:28:41.581Z,100735.97
2023-02-23T09:31:13.253Z,100737.97
2023-02-23T09:33:40.324Z,100737.97
2023-02-23T09:36:13.015Z,100744.75
2023-02-23T09:38:39.920Z,100737.16
2023-02-23T09:41:28.308Z,100739.50
2023-02-23T09:43:57.621Z,100740.41
2023-02-23T09:46:54.474Z,100744.81
2023-02-23T09:49:25.572Z,100740.84
2023-02-23T09:51:57.812Z,100740.06
2023-02-23T09:54:29.743Z,100745.66
2023-02-23T09:56:58.322Z,100748.06
2023-02-23T09:59:25.624Z,100744.09
2023-02-23T10:02:00.731Z,100748.50
2023-02-23T10:04:32.472Z,100750.59
2023-02-23T10:07:13.229Z,100743.38
2023-02-23T10:09:47.778Z,100744.19
2023-02-23T10:12:28.597Z,100747.78
2023-02-23T10:15:23.870Z,100764.66
2023-02-23T10:18:03.146Z,100758.69
2023-02-23T10:20:34.426Z,100761.13
2023-02-23T10:23:09.574Z,100760.78
2023-02-23T10:25:43.125Z,100762.38
2023-02-23T10:28:17.434Z,100761.19
2023-02-23T10:30:44.406Z,100769.69
2023-02-23T10:33:17.422Z,100774.91
2023-02-23T10:35:45.275Z,100776.59
2023-02-23T10:38:19.050Z,100768.22
2023-02-23T10:40:50.904Z,100770.72
2023-02-23T10:43:17.314Z,100770.81
2023-02-23T10:45:49.855Z,100772.44
2023-02-23T10:48:38.784Z,100762.84
2023-02-23T10:51:07.520Z,100767.00
2023-02-23T10:53:36.312Z,100761.41
2023-02-23T10:56:06.521Z,100766.63
2023-02-23T10:58:43.344Z,100771.44
2023-02-23T11:01:10.459Z,100758.34
2023-02-23T11:03:44.308Z,100759.84
2023-02-23T11:06:27.646Z,100758.69
2023-02-23T11:08:54.708Z,100755.16
2023-02-23T11:11:28.695Z,100759.94
2023-02-23T11:13:57.233Z,100765.16
2023-02-23T11:16:30.736Z,100755.97
2023-02-23T11:19:02.550Z,100755.97
2023-02-23T11:21:35.273Z,100757.16
2023-02-23T11:24:25.212Z,100762.28
2023-02-23T11:26:54.719Z,100765.47
2023-02-23T11:29:35.014Z,100762.13
2023-02-23T11:32:16.658Z,100765.31
2023-02-23T11:34:43.942Z,100769.25
2023-02-23T11:37:15.202Z,100770.34
2023-02-23T11:40:02.745Z,100770.22
2023-02-23T11:42:33.830Z,100770.59
2023-02-23T11:45:19.346Z,100765.63
2023-02-23T11:47:49.650Z,100759.22
2023-02-23T11:50:24.473Z,100755.91
2023-02-23T11:53:03.293Z,100762.19
2023-02-23T11:55:32.703Z,100762.56
2023-02-23T11:58:11.695Z,100758.44
2023-02-23T12:00:39.106Z,100756.81
2023-02-23T12:03:05.930Z,100758.72
2023-02-23T12:05:34.019Z,100758.63
2023-02-23T12:08:10.557Z,100761.34
2023-02-23T12:10:58.170Z,100766.38
2023-02-23T12:13:32.898Z,100762.78
2023-02-23T12:16:05.408Z,100767.09
2023-02-23T12:18:46.123Z,100766.22
2023-02-23T12:21:51.107Z,100756.09
2023-02-23T12:24:45.774Z,100758.44
2023-02-23T12:27:24.140Z,100761.22
2023-02-23T12:30:02.414Z,100753.91
2023-02-23T12:32:51.348Z,100757.09
2023-02-23T12:35:31.089Z,100763.47
2023-02-23T12:38:08.786Z,100763.84
2023-02-23T12:40:39.274Z,100765.47
2023-02-23T12:43:22.071Z,100764.56
2023-02-23T12:45:53.356Z,100763.38
2023-02-23T12:48:36.034Z,100762.94
2023-02-23T12:51:12.655Z,100768.97
2023-02-23T12:53:43.680Z,100775.75
2023-02-23T12:56:15.782Z,100770.94
2023-02-23T12:59:14.552Z,100779.25
2023-02-23T13:01:59.146Z,100777.28
2023-02-23T13:04:43.938Z,100774.94
2023-02-23T13:07:34.707Z,100772.41
2023-02-23T13:10:43.492Z,100771.22
2023-02-23T13:13:45.002Z,100769.72
2023-02-23T13:16:34.403Z,100771.31
2023-02-23T13:19:28.663Z,100765.75
2023-02-23T13:22:05.690Z,100773.75
2023-02-23T13:24:43.748Z,100769.25
2023-02-23T13:27:29.042Z,100770.41
2023-02-23T13:29:59.387Z,100776.38
2023-02-23T13:32:32.149Z,100774.28
2023-02-23T13:35:16.766Z,100770.59
2023-02-23T13:37:53.279Z,100769.34
2023-02-23T13:40:31.823Z,100773.66
2023-02-23T13:43:02.994Z,100768.53
2023-02-23T13:45:48.952Z,100776.81
2023-02-23T13:48:28.219Z,100778.69
2023-02-23T13:51:15.964Z,100787.44
2023-02-23T13:53:58.067Z,100786.25
2023-02-23T13:56:28.021Z,100796.16
2023-02-23T13:59:08.293Z,100784.91
2023-02-23T14:01:40.756Z,100791.63
2023-02-23T14:04:14.975Z,100789.22
2023-02-23T14:06:53.735Z,100785.97
2023-02-23T14:09:31.891Z,100788.75
2023-02-23T14:12:33.713Z,100795.06
2023-02-23T14:15:28.232Z,100792.97
2023-02-23T14:17:55.392Z,100796.59
2023-02-23T14:20:39.402Z,100792.88
2023-02-23T14:23:21.270Z,100803.25
2023-02-23T14:25:52.992Z,100798.00
2023-02-23T14:28:30.733Z,100798.72
2023-02-23T14:31:01.447Z,100801.16
2023-02-23T14:33:52.296Z,100813.03
2023-02-23T14:36:21.418Z,100803.50
2023-02-23T14:38:54.540Z,100807.44
2023-02-23T14:41:28.256Z,100799.44
2023-02-23T14:44:00.227Z,100800.25
2023-02-23T14:46:28.385Z,100801.03
2023-02-23T14:49:01.218Z,100796.63
2023-02-23T14:51:42.548Z,100793.41
2023-02-23T14:54:26.094Z,100795.38
2023-02-23T14:56:58.075Z,100798.25
2023-02-23T14:59:43.224Z,100793.84
2023-02-23T15:02:26.877Z,100797.44
2023-02-23T15:04:54.296Z,100795.56
2023-02-23T15:07:31.062Z,100798.38
2023-02-23T15:09:59.911Z,100799.53
2023-02-23T15:12:29.792Z,100792.34
2023-02-23T15:15:00.383Z,100801.53
2023-02-23T15:17:31.994Z,100807.91
2023-02-23T15:20:17.352Z,100803.50
2023-02-23T15:22:47.200Z,100811.88
2023-02-23T15:25:15.471Z,100810.72
2023-02-23T15:27:44.391Z,100818.28
2023-02-23T15:30:27.425Z,100814.19
2023-02-23T15:33:12.174Z,100817.00
2023-02-23T15:35:49.957Z,100816.63
2023-02-23T15:38:42.331Z,100816.63
2023-02-23T15:41:15.610Z,100817.47
2023-02-23T15:43:43.335Z,100823.84
2023-02-23T15:46:23.110Z,100820.25
2023-02-23T15:48:52.004Z,100814.66
2023-02-23T15:51:29.039Z,100813.38
2023-02-23T15:53:55.620Z,100814.66
2023-02-23T15:56:30.262Z,100808.97
2023-02-23T15:59:03.321Z,100809.44
2023-02-23T16:01:31.546Z,100797.44
2023-02-23T16:04:02.347Z,100798.25
2023-02-23T16:06:41.889Z,100800.59
2023-02-23T16:09:21.027Z,100799.44
2023-02-23T16:11:50.624Z,100802.66
2023-02-23T16:14:19.964Z,100805.47
2023-02-23T16:17:01.337Z,100802.22
2023-02-23T16:19:40.688Z,100793.84
2023-02-23T16:22:22.482Z,100793.03
2023-02-23T16:25:05.115Z,100797.81
2023-02-23T16:27:32.109Z,100803.41
2023-02-23T16:30:15.690Z,100808.50
2023-02-23T16:32:43.723Z,100803.28
2023-02-23T16:35:20.460Z,100796.78
2023-02-23T16:38:01.044Z,100795.16
2023-02-23T16:40:29.040Z,100797.59
2023-02-23T16:42:59.775Z,100801.56
2023-02-23T16:45:27.428Z,100794.34
2023-02-23T16:47:54.130Z,100801.13
2023-02-23T16:50:24.232Z,100805.88
2023-02-23T16:52:53.051Z,100810.66
2023-02-23T16:55:25.593Z,100798.22
2023-02-23T16:57:57.841Z,100799.03
2023-02-23T17:00:28.540Z,100791.81
2023-02-23T17:02:55.885Z,100797.84
2023-02-23T17:05:26.572Z,100799.03
2023-02-23T17:07:53.673Z,100802.63
2023-02-23T17:10:34.533Z,100805.31
2023-02-23T17:13:07.190Z,100811.00
2023-02-23T17:15:41.029Z,100807.41
2023-02-23T17:18:07.790Z,100818.19
2023-02-23T17:20:34.555Z,100812.63
2023-02-23T17:23:02.193Z,100819.38
2023-02-23T17:25:28.937Z,100820.19
2023-02-23T17:27:57.315Z,100822.53
2023-02-23T17:30:24.345Z,100831.72
2023-02-23T17:32:52.480Z,100828.47
2023-02-23T17:35:19.289Z,100828.47
2023-02-23T17:37:46.006Z,100822.41
2023-02-23T17:40:18.717Z,100830.34
2023-02-23T17:42:45.110Z,100833.94
2023-02-23T17:45:11.513Z,100832.31
2023-02-23T17:47:58.144Z,100837.91
2023-02-23T17:50:27.093Z,100837.41
2023-02-23T17:52:54.235Z,100844.97
2023-02-23T17:55:22.175Z,100840.94
2023-02-23T17:57:48.643Z,100846.03
2023-02-23T18:00:18.675Z,100849.06
2023-02-23T18:02:46.117Z,100848.28
2023-02-23T18:05:14.075Z,100841.41
2023-02-23T18:07:40.528Z,100854.53
2023-02-23T18:10:07.597Z,100853.28
2023-02-23T18:12:34.008Z,100852.47
2023-02-23T18:15:00.401Z,100846.78
2023-02-23T18:17:27.917Z,100850.75
2023-02-23T18:19:54.335Z,100851.91
2023-02-23T18:22:20.729Z,100849.44
2023-02-23T18:24:47.077Z,100846.66
2023-02-23T18:27:13.488Z,100843.38
2023-02-23T18:29:40.455Z,100838.16
2023-02-23T18:32:07.713Z,100841.78
2023-02-23T18:34:35.528Z,100851.28
2023-02-23T18:37:03.423Z,100850.13
2023-02-23T18:39:31.445Z,100852.44
2023-02-23T18:41:58.475Z,100844.22
2023-02-23T18:44:25.450Z,100851.75
2023-02-23T18:46:53.083Z,100848.63
2023-02-23T18:49:22.367Z,100843.06
2023-02-23T18:51:48.839Z,100857.00
2023-02-23T18:54:18.572Z,100859.00
2023-02-23T18:56:47.393Z,100856.19
2023-02-23T18:59:14.688Z,100856.19
2023-02-23T19:01:45.105Z,100856.19
2023-02-23T19:04:13.901Z,100853.41
2023-02-23T19:06:44.689Z,100854.53
2023-02-23T19:09:14.548Z,100856.19
2023-02-23T19:11:42.717Z,100847.34
2023-02-23T19:14:16.034Z,100858.50
2023-02-23T19:16:43.191Z,100852.94
2023-02-23T19:19:10.085Z,100845.69
2023-02-23T19:21:37.947Z,100851.75
2023-02-23T19:24:05.570Z,100847.34
2023-02-23T19:26:33.802Z,100849.81
2023-02-23T19:29:00.157Z,100842.25
2023-02-23T19:31:28.319Z,100838.66
2023-02-23T19:33:56.989Z,100844.56
2023-02-23T19:36:29.268Z,100844.22
2023-02-23T19:39:06.015Z,100827.13
2023-02-23T19:41:34.329Z,100829.09
2023-02-23T19:44:01.154Z,100823.84
2023-02-23T19:46:28.211Z,100825.03
2023-02-23T19:48:55.449Z,100829.31
2023-02-23T19:51:23.231Z,100832.47
2023-02-23T19:53:50.051Z,100840.84
2023-02-23T19:56:17.032Z,100834.78
2023-02-23T19:58:46.473Z,100844.81
2023-02-23T20:01:16.549Z,100845.50
2023-02-23T20:03:44.764Z,100840.28
2023-02-23T20:06:13.938Z,100838.63
2023-02-23T20:08:41.475Z,100847.00
2023-02-23T20:11:08.052Z,100845.38
2023-02-23T20:13:35.384Z,100843.75
2023-02-23T20:16:10.889Z,100844.91
2023-02-23T20:18:39.927Z,100850.13
2023-02-23T20:21:14.185Z,100847.72
2023-02-23T20:23:42.331Z,100842.94
2023-02-23T20:26:12.232Z,100849.69
2023-02-23T20:28:40.129Z,100854.09
2023-02-23T20:31:21.260Z,100852.00
2023-02-23T20:33:51.081Z,100854.91
2023-02-23T20:36:18.130Z,100860.13
2023-02-23T20:38:44.805Z,100856.53
2023-02-23T20:41:12.360Z,100850.13
2023-02-23T20:43:39.311Z,100849.78
2023-02-23T20:46:06.484Z,100856.53
2023-02-23T20:48:34.707Z,100855.72
2023-02-23T20:51:02.003Z,100853.75
2023-02-23T20:53:29.491Z,100847.00
2023-02-23T20:55:56.262Z,100846.19
2023-02-23T20:58:25.431Z,100852.25
2023-02-23T21:00:58.134Z,100846.66
2023-02-23T21:03:25.342Z,100846.66
2023-02-23T21:05:52.353Z,100846.31
2023-02-23T21:08:20.018Z,100846.66
2023-02-23T21:10:48.766Z,100847.84
2023-02-23T21:13:16.161Z,100847.22
2023-02-23T21:15:44.027Z,100840.97
2023-02-23T21:18:12.856Z,100837.81
2023-02-23T21:20:40.064Z,100840.28
2023-02-23T21:23:06.446Z,100832.38
2023-02-23T21:25:33.092Z,100830.06
2023-02-23T21:28:01.834Z,100830.97
2023-02-23T21:30:29.452Z,100835.38
2023-02-23T21:32:57.366Z,100829.06
2023-02-23T21:35:24.158Z,100832.75
2023-02-23T21:37:51.613Z,100832.53
2023-02-23T21:40:21.150Z,100829.16
2023-02-23T21:42:48.989Z,100834.94
2023-02-23T21:45:16.305Z,100835.09
2023-02-23T21:47:45.180Z,100838.94
2023-02-23T21:50:15.429Z,100841.91
2023-02-23T21:52:43.821Z,100841.78
2023-02-23T21:55:21.248Z,100850.81
2023-02-23T21:57:48.659Z,100843.28
2023-02-23T22:00:16.488Z,100847.22
2023-02-23T22:02:46.833Z,100846.75
2023-02-23T22:05:16.167Z,100844.78
2023-02-23T22:07:48.692Z,100837.09
2023-02-23T22:10:16.687Z,100834.31
2023-02-23T22:12:43.058Z,100836.28
2023-02-23T22:15:12.489Z,100843.84
2023-02-23T22:17:39.076Z,100832.22
2023-02-23T22:20:07.278Z,100836.16
2023-02-23T22:22:36.074Z,100835.69
2023-02-23T22:25:04.024Z,100830.13
2023-02-23T22:27:31.197Z,100840.91
2023-02-23T22:30:01.358Z,100836.97
2023-02-23T22:32:32.476Z,100838.13
2023-02-23T22:35:00.484Z,100836.16
2023-02-23T22:37:29.654Z,100835.81
2023-02-23T22:39:57.516Z,100841.03
2023-02-23T22:42:24.511Z,100832.69
2023-02-23T22:44:51.145Z,100834.31
2023-02-23T22:47:17.725Z,100832.34
2023-02-23T22:49:46.628Z,100825.16
2023-02-23T22:52:13.309Z,100831.88
2023-02-23T22:54:39.723Z,100831.88
2023-02-23T22:57:06.692Z,100827.81
2023-02-23T22:59:33.417Z,100827.34
2023-02-23T23:01:59.915Z,100822.09
2023-02-23T23:04:26.789Z,100828.00
2023-02-23T23:06:53.220Z,100817.22
2023-02-23T23:09:22.103Z,100820.34
2023-02-23T23:11:51.313Z,100824.63
2023-02-23T23:14:19.451Z,100819.28
2023-02-23T23:16:51.875Z,100816.84
2023-02-23T23:19:25.269Z,100818.66
2023-02-23T23:21:57.345Z,100818.19
2023-02-23T23:24:24.837Z,100828.34
2023-02-23T23:26:58.080Z,100824.31
2023-02-23T23:29:29.927Z,100812.72
2023-02-23T23:32:01.364Z,100820.56
2023-02-23T23:34:27.892Z,100811.75
2023-02-23T23:36:55.219Z,100810.09
2023-02-23T23:39:25.822Z,100808.03
2023-02-23T23:41:52.477Z,100816.38
2023-02-23T23:44:22.341Z,100810.66
2023-02-23T23:46:50.688Z,100806.25
2023-02-23T23:49:20.116Z,100805.75
2023-02-23T23:51:50.457Z,100806.09
2023-02-23T23:54:23.082Z,100798.94
2023-02-23T23:56:50.356Z,100795.69
2023-02-23T23:59:20.518Z,100788.81
